createdAt,value
2018-12-25T00:00:46.841Z,94.90
2018-12-25T00:03:15.817Z,94.60
2018-12-25T00:05:44.766Z,95.00
2018-12-25T00:08:13.748Z,95.00
2018-12-25T00:10:42.720Z,94.90
2018-12-25T00:13:11.695Z,94.80
2018-12-25T00:15:40.658Z,95.00
2018-12-25T00:18:09.649Z,94.30
2018-12-25T00:20:38.595Z,95.00
2018-12-25T00:23:07.563Z,94.70
2018-12-25T00:25:36.535Z,94.60
2018-12-25T00:28:05.521Z,94.90
2018-12-25T00:30:34.490Z,94.40
2018-12-25T00:33:03.459Z,93.70
2018-12-25T00:35:32.430Z,94.00
2018-12-25T00:38:01.387Z,94.60
2018-12-25T00:40:30.354Z,94.30
2018-12-25T00:42:59.346Z,94.40
2018-12-25T00:45:28.303Z,94.60
2018-12-25T00:47:57.283Z,94.00
2018-12-25T00:50:26.262Z,94.60
2018-12-25T00:52:55.223Z,94.80
2018-12-25T00:55:24.206Z,95.10
2018-12-25T00:57:53.177Z,95.20
2018-12-25T01:00:22.158Z,95.50
2018-12-25T01:02:51.141Z,96.10
2018-12-25T01:05:20.184Z,95.90
2018-12-25T01:07:49.141Z,95.90
2018-12-25T01:10:18.130Z,95.60
2018-12-25T01:12:47.091Z,95.90
2018-12-25T01:15:16.070Z,95.70
2018-12-25T01:17:45.025Z,95.60
2018-12-25T01:20:13.995Z,95.30
2018-12-25T01:22:42.955Z,95.60
2018-12-25T01:25:11.929Z,95.40
2018-12-25T01:27:40.961Z,95.00
2018-12-25T01:30:09.926Z,95.10
2018-12-25T01:32:38.892Z,94.70
2018-12-25T01:35:07.871Z,94.70
2018-12-25T01:37:36.833Z,95.00
2018-12-25T01:40:06.382Z,94.70
2018-12-25T01:42:35.339Z,94.80
2018-12-25T01:45:05.050Z,94.70
2018-12-25T01:47:34.002Z,94.60
2018-12-25T01:50:03.120Z,94.50
2018-12-25T01:52:32.076Z,95.00
2018-12-25T01:55:01.054Z,95.00
2018-12-25T01:57:30.027Z,95.00
2018-12-25T01:59:59.001Z,95.60
2018-12-25T02:02:27.951Z,95.60
2018-12-25T02:04:56.939Z,95.20
2018-12-25T02:07:25.887Z,95.00
2018-12-25T02:09:54.854Z,95.00
2018-12-25T02:12:23.806Z,95.20
2018-12-25T02:14:52.767Z,94.90
2018-12-25T02:17:21.740Z,95.40
2018-12-25T02:19:50.694Z,95.50
2018-12-25T02:22:19.680Z,94.90
2018-12-25T02:24:48.662Z,95.90
2018-12-25T02:27:17.634Z,95.90
2018-12-25T02:29:46.623Z,95.80
2018-12-25T02:32:15.582Z,95.70
2018-12-25T02:34:44.553Z,96.00
2018-12-25T02:37:13.520Z,95.70
2018-12-25T02:39:42.548Z,95.60
2018-12-25T02:42:11.523Z,95.70
2018-12-25T02:44:40.481Z,95.80
2018-12-25T02:47:09.495Z,95.90
2018-12-25T02:49:38.505Z,95.40
2018-12-25T02:52:07.475Z,95.20
2018-12-25T02:54:36.445Z,95.80
2018-12-25T02:57:05.418Z,95.90
2018-12-25T02:59:34.388Z,95.60
2018-12-25T03:02:03.433Z,95.40
2018-12-25T03:04:32.391Z,95.10
2018-12-25T03:07:01.379Z,94.90
2018-12-25T03:09:30.332Z,95.50
2018-12-25T03:11:59.304Z,96.10
2018-12-25T03:14:28.273Z,95.20
2018-12-25T03:16:57.256Z,95.80
2018-12-25T03:19:26.207Z,96.00
2018-12-25T03:21:55.185Z,96.00
2018-12-25T03:24:24.157Z,96.40
2018-12-25T03:26:53.123Z,96.60
2018-12-25T03:29:22.073Z,97.60
2018-12-25T03:31:51.052Z,97.60
2018-12-25T03:34:20.021Z,96.90
2018-12-25T03:36:49.004Z,97.10
2018-12-25T03:39:17.968Z,97.00
2018-12-25T03:41:46.935Z,96.80
2018-12-25T03:44:15.896Z,97.00
2018-12-25T03:46:44.868Z,96.80
2018-12-25T03:49:13.828Z,96.90
2018-12-25T03:51:42.791Z,97.20
2018-12-25T03:54:11.756Z,97.20
2018-12-25T03:56:40.728Z,97.10
2018-12-25T03:59:09.684Z,97.10
2018-12-25T04:01:38.666Z,97.60
2018-12-25T04:04:07.639Z,97.30
2018-12-25T04:06:36.625Z,97.20
2018-12-25T04:09:06.546Z,97.50
2018-12-25T04:11:35.529Z,97.20
2018-12-25T04:14:04.495Z,97.60
2018-12-25T04:16:33.462Z,97.30
2018-12-25T04:19:02.420Z,97.50
2018-12-25T04:21:31.386Z,97.50
2018-12-25T04:24:00.371Z,97.40
2018-12-25T04:26:29.344Z,97.70
2018-12-25T04:28:58.325Z,97.80
2018-12-25T04:31:27.267Z,97.60
2018-12-25T04:33:56.256Z,98.10
2018-12-25T04:36:25.203Z,98.20
2018-12-25T04:38:54.188Z,97.80
2018-12-25T04:41:23.149Z,97.50
2018-12-25T04:43:52.110Z,98.20
2018-12-25T04:46:21.071Z,98.10
2018-12-25T04:48:50.040Z,97.70
2018-12-25T04:51:19.000Z,97.90
2018-12-25T04:53:47.972Z,97.90
2018-12-25T04:56:16.929Z,97.80
2018-12-25T04:58:45.900Z,97.70
2018-12-25T05:01:14.864Z,97.80
2018-12-25T05:03:43.841Z,97.50
2018-12-25T05:06:12.799Z,97.40
2018-12-25T05:08:41.779Z,98.00
2018-12-25T05:11:10.742Z,97.30
2018-12-25T05:13:39.723Z,97.80
2018-12-25T05:16:08.673Z,96.90
2018-12-25T05:18:37.642Z,97.50
2018-12-25T05:21:06.602Z,97.50
2018-12-25T05:23:35.624Z,97.20
2018-12-25T05:26:04.623Z,96.70
2018-12-25T05:28:33.603Z,97.00
2018-12-25T05:31:02.549Z,97.30
2018-12-25T05:33:31.531Z,97.20
2018-12-25T05:36:00.484Z,97.30
2018-12-25T05:38:29.454Z,97.50
2018-12-25T05:40:58.409Z,97.80
2018-12-25T05:43:27.386Z,97.40
2018-12-25T05:45:56.342Z,97.40
2018-12-25T05:48:25.327Z,97.40
2018-12-25T05:50:54.308Z,97.70
2018-12-25T05:53:23.271Z,97.00
2018-12-25T05:55:52.227Z,97.20
2018-12-25T05:58:21.199Z,97.00
2018-12-25T06:00:50.162Z,97.30
2018-12-25T06:03:19.143Z,97.30
2018-12-25T06:05:48.098Z,97.20
2018-12-25T06:08:17.076Z,97.30
2018-12-25T06:10:46.038Z,97.40
2018-12-25T06:13:15.018Z,97.70
2018-12-25T06:15:43.971Z,97.10
2018-12-25T06:18:12.947Z,97.40
2018-12-25T06:20:41.909Z,97.70
2018-12-25T06:23:10.865Z,97.70
2018-12-25T06:25:39.838Z,97.60
2018-12-25T06:28:08.795Z,97.50
2018-12-25T06:30:37.779Z,97.50
2018-12-25T06:33:06.750Z,97.30
2018-12-25T06:35:35.706Z,97.60
2018-12-25T06:38:04.679Z,97.40
2018-12-25T06:40:33.655Z,97.50
2018-12-25T06:43:02.626Z,97.60
2018-12-25T06:45:31.591Z,97.50
2018-12-25T06:48:00.542Z,97.10
2018-12-25T06:50:29.526Z,97.20
2018-12-25T06:52:58.483Z,97.50
2018-12-25T06:55:27.452Z,97.40
2018-12-25T06:57:56.411Z,97.60
2018-12-25T07:00:25.450Z,97.20
2018-12-25T07:02:54.415Z,97.30
2018-12-25T07:05:23.378Z,97.10
2018-12-25T07:07:52.336Z,97.30
2018-12-25T07:10:21.306Z,97.40
2018-12-25T07:12:50.265Z,97.50
2018-12-25T07:15:19.238Z,97.40
2018-12-25T07:17:48.267Z,97.30
2018-12-25T07:20:17.253Z,97.40
2018-12-25T07:22:46.211Z,97.30
2018-12-25T07:25:15.186Z,96.90
2018-12-25T07:27:44.143Z,97.80
2018-12-25T07:30:13.196Z,98.00
2018-12-25T07:32:42.151Z,98.20
2018-12-25T07:35:11.118Z,97.60
2018-12-25T07:37:40.070Z,97.90
2018-12-25T07:40:09.055Z,97.80
2018-12-25T07:42:38.015Z,97.70
2018-12-25T07:45:07.059Z,97.80
2018-12-25T07:47:36.028Z,97.60
2018-12-25T07:50:06.737Z,97.70
2018-12-25T07:52:35.690Z,97.90
2018-12-25T07:55:05.132Z,98.00
2018-12-25T07:57:34.091Z,97.60
2018-12-25T08:00:03.156Z,97.40
2018-12-25T08:02:32.111Z,97.50
2018-12-25T08:05:01.092Z,97.40
2018-12-25T08:07:30.054Z,97.60
2018-12-25T08:09:59.027Z,97.30
2018-12-25T08:12:27.979Z,98.20
2018-12-25T08:14:56.956Z,97.70
2018-12-25T08:17:25.926Z,98.10
2018-12-25T08:19:54.878Z,97.30
2018-12-25T08:22:23.877Z,97.90
2018-12-25T08:24:52.870Z,98.00
2018-12-25T08:27:21.823Z,97.90
2018-12-25T08:29:50.795Z,97.90
2018-12-25T08:32:19.760Z,98.10
2018-12-25T08:34:48.739Z,98.40
2018-12-25T08:37:17.706Z,98.40
2018-12-25T08:39:46.669Z,98.00
2018-12-25T08:42:15.619Z,97.70
2018-12-25T08:44:44.591Z,97.70
2018-12-25T08:47:13.572Z,97.50
2018-12-25T08:49:42.711Z,97.20
2018-12-25T08:52:11.641Z,98.00
2018-12-25T08:54:40.622Z,97.50
2018-12-25T08:57:09.592Z,97.50
2018-12-25T08:59:38.559Z,97.80
2018-12-25T09:02:07.520Z,98.00
2018-12-25T09:04:36.508Z,97.90
2018-12-25T09:07:05.958Z,97.50
2018-12-25T09:09:34.923Z,97.50
2018-12-25T09:12:03.897Z,97.20
2018-12-25T09:14:32.875Z,97.40
2018-12-25T09:17:01.831Z,97.20
2018-12-25T09:19:30.836Z,97.50
2018-12-25T09:21:59.801Z,97.60
2018-12-25T09:24:28.779Z,96.90
2018-12-25T09:26:57.739Z,97.30
2018-12-25T09:29:26.723Z,97.20
2018-12-25T09:31:55.678Z,97.50
2018-12-25T09:34:24.654Z,97.50
2018-12-25T09:36:53.614Z,97.60
2018-12-25T09:39:22.578Z,97.40
2018-12-25T09:41:51.563Z,97.40
2018-12-25T09:44:20.524Z,97.40
2018-12-25T09:46:49.499Z,96.60
2018-12-25T09:49:18.445Z,97.40
2018-12-25T09:51:54.353Z,97.80
2018-12-25T09:54:18.068Z,97.70
2018-12-25T09:56:47.135Z,97.70
2018-12-25T09:59:16.098Z,97.40
2018-12-25T10:01:45.123Z,97.30
2018-12-25T10:04:14.076Z,97.00
2018-12-25T10:06:43.054Z,96.70
2018-12-25T10:09:12.031Z,96.60
2018-12-25T10:11:44.517Z,96.60
2018-12-25T10:14:11.677Z,96.90
2018-12-25T10:16:40.656Z,96.40
2018-12-25T10:19:09.615Z,96.70
2018-12-25T10:21:38.602Z,96.40
2018-12-25T10:24:07.555Z,95.90
2018-12-25T10:26:36.539Z,96.60
2018-12-25T10:29:05.495Z,96.50
2018-12-25T10:31:34.463Z,96.60
2018-12-25T10:34:03.444Z,96.80
2018-12-25T10:36:32.433Z,97.30
2018-12-25T10:39:01.394Z,97.20
2018-12-25T10:41:30.360Z,97.00
2018-12-25T10:43:59.329Z,96.90
2018-12-25T10:46:28.303Z,96.90
2018-12-25T10:48:57.269Z,97.10
2018-12-25T10:51:26.301Z,97.00
2018-12-25T10:53:55.272Z,97.90
2018-12-25T10:56:24.244Z,97.40
2018-12-25T10:58:53.294Z,97.40
2018-12-25T11:01:22.392Z,96.50
2018-12-25T11:03:51.371Z,96.20
2018-12-25T11:06:20.346Z,96.50
2018-12-25T11:08:49.315Z,96.70
2018-12-25T11:11:18.288Z,96.70
2018-12-25T11:13:47.271Z,96.10
2018-12-25T11:16:16.342Z,96.40
2018-12-25T11:18:49.055Z,96.40
2018-12-25T11:21:16.067Z,96.00
2018-12-25T11:23:45.026Z,96.40
2018-12-25T11:26:14.003Z,96.80
2018-12-25T11:28:42.958Z,96.90
2018-12-25T11:31:11.957Z,97.30
2018-12-25T11:33:40.924Z,96.90
2018-12-25T11:36:09.899Z,96.70
2018-12-25T11:38:38.888Z,95.80
2018-12-25T11:41:07.866Z,95.50
2018-12-25T11:43:36.839Z,95.00
2018-12-25T11:46:05.801Z,95.70
2018-12-25T11:48:34.793Z,96.40
2018-12-25T11:51:03.746Z,94.50
2018-12-25T11:53:32.738Z,94.50
2018-12-25T11:56:01.692Z,94.10
2018-12-25T11:58:30.681Z,94.90
2018-12-25T12:00:59.631Z,94.50
2018-12-25T12:03:28.614Z,94.30
2018-12-25T12:05:57.597Z,95.20
2018-12-25T12:08:26.587Z,94.40
2018-12-25T12:10:55.523Z,93.60
2018-12-25T12:13:24.507Z,93.40
2018-12-25T12:15:53.480Z,94.10
2018-12-25T12:18:22.605Z,93.10
2018-12-25T12:20:51.631Z,93.10
2018-12-25T12:23:20.615Z,92.20
2018-12-25T12:25:49.566Z,91.70
2018-12-25T12:28:18.541Z,92.70
2018-12-25T12:30:47.514Z,92.10
2018-12-25T12:33:16.490Z,92.80
2018-12-25T12:35:45.443Z,92.20
2018-12-25T12:38:14.419Z,92.90
2018-12-25T12:40:43.386Z,92.40
2018-12-25T12:43:12.372Z,92.30
2018-12-25T12:45:41.334Z,92.40
2018-12-25T12:48:10.300Z,92.20
2018-12-25T12:50:39.267Z,92.20
2018-12-25T12:53:08.261Z,92.50
2018-12-25T12:55:37.222Z,93.70
2018-12-25T12:58:06.200Z,93.50
2018-12-25T13:00:35.176Z,93.40
2018-12-25T13:03:04.148Z,92.60
2018-12-25T13:05:33.128Z,93.60
2018-12-25T13:08:02.107Z,94.20
2018-12-25T13:10:31.059Z,93.60
2018-12-25T13:13:00.036Z,92.90
2018-12-25T13:15:29.059Z,93.40
2018-12-25T13:17:58.040Z,93.20
2018-12-25T13:20:26.992Z,91.40
2018-12-25T13:22:55.999Z,91.50
2018-12-25T13:25:24.954Z,92.40
2018-12-25T13:27:53.947Z,92.40
2018-12-25T13:30:22.934Z,91.30
2018-12-25T13:32:51.903Z,92.00
2018-12-25T13:35:20.862Z,91.80
2018-12-25T13:37:49.857Z,91.80
2018-12-25T13:40:18.809Z,92.30
2018-12-25T13:42:47.854Z,92.00
2018-12-25T13:45:16.811Z,91.70
2018-12-25T13:47:45.805Z,92.20
2018-12-25T13:50:14.766Z,92.60
2018-12-25T13:52:43.750Z,91.80
2018-12-25T13:55:12.707Z,91.40
2018-12-25T13:57:41.678Z,93.00
2018-12-25T14:00:10.643Z,92.40
2018-12-25T14:02:40.571Z,92.60
2018-12-25T14:05:09.526Z,93.20
2018-12-25T14:07:38.512Z,93.50
2018-12-25T14:10:09.048Z,93.40
2018-12-25T14:12:38.017Z,92.80
2018-12-25T14:15:07.074Z,93.50
2018-12-25T14:17:36.045Z,92.60
2018-12-25T14:20:06.377Z,93.10
2018-12-25T14:22:35.319Z,93.00
2018-12-25T14:25:04.835Z,92.40
2018-12-25T14:27:33.794Z,92.20
2018-12-25T14:30:02.767Z,92.40
2018-12-25T14:32:31.743Z,91.70
2018-12-25T14:35:00.713Z,92.20
2018-12-25T14:37:29.680Z,91.20
2018-12-25T14:39:58.663Z,91.80
2018-12-25T14:42:27.638Z,91.80
2018-12-25T14:44:56.616Z,91.60
2018-12-25T14:47:25.591Z,91.20
2018-12-25T14:49:54.559Z,91.10
2018-12-25T14:52:23.539Z,90.60
2018-12-25T14:54:53.737Z,92.40
2018-12-25T14:57:22.842Z,92.00
2018-12-25T14:59:51.815Z,91.50
2018-12-25T15:02:20.781Z,92.20
2018-12-25T15:04:49.758Z,93.00
2018-12-25T15:07:18.720Z,92.50
2018-12-25T15:09:47.686Z,92.80
2018-12-25T15:12:16.651Z,93.10
2018-12-25T15:14:45.651Z,93.00
2018-12-25T15:17:14.610Z,92.90
2018-12-25T15:19:43.574Z,92.50
2018-12-25T15:22:12.554Z,92.10
2018-12-25T15:24:41.537Z,92.20
2018-12-25T15:27:10.505Z,92.60
2018-12-25T15:29:39.483Z,92.10
2018-12-25T15:32:08.453Z,92.30
2018-12-25T15:34:37.418Z,92.90
2018-12-25T15:37:06.495Z,92.50
2018-12-25T15:39:35.462Z,92.60
2018-12-25T15:42:04.438Z,92.80
2018-12-25T15:44:33.455Z,93.50
2018-12-25T15:47:02.402Z,92.90
2018-12-25T15:49:31.454Z,92.90
2018-12-25T15:52:00.434Z,93.10
2018-12-25T15:54:29.420Z,93.60
2018-12-25T15:56:58.535Z,93.90
2018-12-25T15:59:27.564Z,93.80
2018-12-25T16:01:56.532Z,93.80
2018-12-25T16:04:25.511Z,93.80
2018-12-25T16:06:54.484Z,93.80
2018-12-25T16:09:23.476Z,93.70
2018-12-25T16:11:52.456Z,93.90
2018-12-25T16:14:21.450Z,93.90
2018-12-25T16:16:50.450Z,93.60
2018-12-25T16:19:19.410Z,94.00
2018-12-25T16:21:48.403Z,93.90
2018-12-25T16:24:17.385Z,94.20
2018-12-25T16:26:46.371Z,94.00
2018-12-25T16:29:15.350Z,94.00
2018-12-25T16:31:44.322Z,93.90
2018-12-25T16:34:13.315Z,94.40
2018-12-25T16:36:42.280Z,94.20
2018-12-25T16:39:11.332Z,94.30
2018-12-25T16:41:40.394Z,94.50
2018-12-25T16:44:09.358Z,93.90
2018-12-25T16:46:38.367Z,94.30
2018-12-25T16:49:07.318Z,94.60
2018-12-25T16:51:36.305Z,94.30
2018-12-25T16:54:05.263Z,94.80
2018-12-25T16:56:34.327Z,94.30
2018-12-25T16:59:03.312Z,94.50
2018-12-25T17:01:32.306Z,94.50
2018-12-25T17:04:01.286Z,94.30
2018-12-25T17:06:30.322Z,94.50
2018-12-25T17:08:59.298Z,94.00
2018-12-25T17:11:28.299Z,94.50
2018-12-25T17:13:57.248Z,94.40
2018-12-25T17:16:26.230Z,94.30
2018-12-25T17:18:55.203Z,94.40
2018-12-25T17:21:24.189Z,94.30
2018-12-25T17:23:53.145Z,94.30
2018-12-25T17:26:22.221Z,94.10
2018-12-25T17:28:51.178Z,94.00
2018-12-25T17:31:20.191Z,94.20
2018-12-25T17:33:49.237Z,94.40
2018-12-25T17:36:18.242Z,94.10
2018-12-25T17:38:47.215Z,94.30
2018-12-25T17:41:16.221Z,94.40
2018-12-25T17:43:45.169Z,94.50
2018-12-25T17:46:14.215Z,94.70
2018-12-25T17:48:43.187Z,94.40
2018-12-25T17:51:12.173Z,94.80
2018-12-25T17:53:41.171Z,95.00
2018-12-25T17:56:10.176Z,95.00
2018-12-25T17:58:39.126Z,94.80
2018-12-25T18:01:08.195Z,95.00
2018-12-25T18:03:37.164Z,94.50
2018-12-25T18:06:06.234Z,94.90
2018-12-25T18:08:35.200Z,95.20
2018-12-25T18:11:04.191Z,94.90
2018-12-25T18:13:33.164Z,95.40
2018-12-25T18:16:02.139Z,95.80
2018-12-25T18:18:31.114Z,95.60
2018-12-25T18:21:00.099Z,95.80
2018-12-25T18:23:29.100Z,95.70
2018-12-25T18:25:58.096Z,95.50
2018-12-25T18:28:27.063Z,95.30
2018-12-25T18:30:56.030Z,95.30
2018-12-25T18:33:24.999Z,95.50
2018-12-25T18:35:54.002Z,95.60
2018-12-25T18:38:22.980Z,95.20
2018-12-25T18:40:51.955Z,95.80
2018-12-25T18:43:20.958Z,95.00
2018-12-25T18:45:49.930Z,95.20
2018-12-25T18:48:18.940Z,95.40
2018-12-25T18:50:47.907Z,95.60
2018-12-25T18:53:16.919Z,95.30
2018-12-25T18:55:45.902Z,95.30
2018-12-25T18:58:14.919Z,95.60
2018-12-25T19:00:43.897Z,95.80
2018-12-25T19:03:12.896Z,95.90
2018-12-25T19:05:41.898Z,95.80
2018-12-25T19:08:10.882Z,95.80
2018-12-25T19:10:39.872Z,95.50
2018-12-25T19:13:08.874Z,95.50
2018-12-25T19:15:37.839Z,95.50
2018-12-25T19:18:06.934Z,95.10
2018-12-25T19:20:35.938Z,95.30
2018-12-25T19:23:04.943Z,95.00
2018-12-25T19:25:33.900Z,95.10
2018-12-25T19:28:02.891Z,95.70
2018-12-25T19:30:31.883Z,95.90
2018-12-25T19:33:00.869Z,95.80
2018-12-25T19:35:29.842Z,96.30
2018-12-25T19:37:58.882Z,95.90
2018-12-25T19:40:27.851Z,96.50
2018-12-25T19:42:56.848Z,96.60
2018-12-25T19:45:25.962Z,96.30
2018-12-25T19:47:54.942Z,95.90
2018-12-25T19:50:24.462Z,96.20
2018-12-25T19:52:53.559Z,96.10
2018-12-25T19:55:22.523Z,96.00
2018-12-25T19:57:51.674Z,96.50
2018-12-25T20:00:20.647Z,96.00
2018-12-25T20:02:51.490Z,96.40
2018-12-25T20:05:29.440Z,96.70
2018-12-25T20:08:30.166Z,96.50
2018-12-25T20:11:18.650Z,96.50
2018-12-25T20:14:16.013Z,96.30
2018-12-25T20:17:03.134Z,96.50
2018-12-25T20:19:40.822Z,96.20
2018-12-25T20:22:37.773Z,95.90
2018-12-25T20:25:24.813Z,96.40
2018-12-25T20:28:05.055Z,96.60
2018-12-25T20:30:39.827Z,96.30
2018-12-25T20:33:23.879Z,96.40
2018-12-25T20:36:01.552Z,96.20
2018-12-25T20:38:36.318Z,96.10
2018-12-25T20:41:25.055Z,96.30
2018-12-25T20:44:18.337Z,96.10
2018-12-25T20:47:18.462Z,96.00
2018-12-25T20:50:02.248Z,96.10
2018-12-25T20:52:42.964Z,96.90
2018-12-25T20:55:26.866Z,96.30
2018-12-25T20:57:58.935Z,96.50
2018-12-25T21:00:48.847Z,96.90
2018-12-25T21:03:40.280Z,96.90
2018-12-25T21:06:21.407Z,96.80
2018-12-25T21:09:28.110Z,97.30
2018-12-25T21:12:18.883Z,97.50
2018-12-25T21:14:56.578Z,97.30
2018-12-25T21:18:04.518Z,96.90
2018-12-25T21:20:54.734Z,97.00
2018-12-25T21:23:59.699Z,97.50
2018-12-25T21:27:04.847Z,97.40
2018-12-25T21:29:34.059Z,97.60
2018-12-25T21:32:03.093Z,97.50
2018-12-25T21:34:32.619Z,97.60
2018-12-25T21:37:01.752Z,97.70
2018-12-25T21:39:30.892Z,97.60
2018-12-25T21:41:59.930Z,97.40
2018-12-25T21:44:29.154Z,97.30
2018-12-25T21:46:58.373Z,97.10
2018-12-25T21:49:27.570Z,97.30
2018-12-25T21:51:56.890Z,97.00
2018-12-25T21:54:25.933Z,97.00
2018-12-25T21:56:55.007Z,97.10
2018-12-25T21:59:24.452Z,97.00
2018-12-25T22:01:53.889Z,97.10
2018-12-25T22:04:22.951Z,96.60
2018-12-25T22:06:51.980Z,97.00
2018-12-25T22:09:20.954Z,96.80
2018-12-25T22:11:49.939Z,96.40
2018-12-25T22:14:18.914Z,97.00
2018-12-25T22:16:47.915Z,97.10
2018-12-25T22:19:16.878Z,97.60
2018-12-25T22:21:45.875Z,97.80
2018-12-25T22:24:14.829Z,97.70
2018-12-25T22:26:43.825Z,97.40
2018-12-25T22:29:12.809Z,97.00
2018-12-25T22:31:41.783Z,96.90
2018-12-25T22:34:10.777Z,96.50
2018-12-25T22:36:39.768Z,96.90
2018-12-25T22:39:08.742Z,96.50
2018-12-25T22:41:37.752Z,96.90
2018-12-25T22:44:06.754Z,96.90
2018-12-25T22:46:35.743Z,97.20
2018-12-25T22:49:04.840Z,96.90
2018-12-25T22:51:35.432Z,96.90
2018-12-25T22:54:04.571Z,96.70
2018-12-25T22:56:33.559Z,97.10
2018-12-25T22:59:02.533Z,96.70
2018-12-25T23:01:31.533Z,96.70
2018-12-25T23:04:00.510Z,96.60
2018-12-25T23:06:29.520Z,96.40
2018-12-25T23:08:58.495Z,97.00
2018-12-25T23:11:27.481Z,96.30
2018-12-25T23:13:56.514Z,96.80
2018-12-25T23:16:25.510Z,96.50
2018-12-25T23:18:54.486Z,96.70
2018-12-25T23:21:23.490Z,96.30
2018-12-25T23:23:52.469Z,96.30
2018-12-25T23:26:21.442Z,96.70
2018-12-25T23:28:50.569Z,96.30
2018-12-25T23:31:19.734Z,96.30
2018-12-25T23:33:48.795Z,96.90
2018-12-25T23:36:17.791Z,96.80
2018-12-25T23:38:46.765Z,96.80
2018-12-25T23:41:15.747Z,96.30
2018-12-25T23:43:44.718Z,96.40
2018-12-25T23:46:13.690Z,96.80
2018-12-25T23:48:42.681Z,96.70
2018-12-25T23:51:11.639Z,96.70
2018-12-25T23:53:40.635Z,97.00
2018-12-25T23:56:09.603Z,97.00
2018-12-25T23:58:38.591Z,96.70
